sensor_id;sensor_type;location;lat;lon;timestamp;P1;durP1;ratioP1;P2;durP2;ratioP2
7707;SDS011;3896;48.758;8.888;2023-04-30T00:01:40;4.17;;;3.73;;
7707;SDS011;3896;48.758;8.888;2023-04-30T00:04:06;3.97;;;3.67;;
7707;SDS011;3896;48.758;8.888;2023-04-30T00:06:31;5.27;;;3.33;;
7707;SDS011;3896;48.758;8.888;2023-04-30T00:08:57;4.97;;;3.83;;
7707;SDS011;3896;48.758;8.888;2023-04-30T00:11:23;4.00;;;3.57;;
7707;SDS011;3896;48.758;8.888;2023-04-30T00:13:49;3.50;;;3.13;;
7707;SDS011;3896;48.758;8.888;2023-04-30T00:16:15;4.90;;;3.80;;
7707;SDS011;3896;48.758;8.888;2023-04-30T00:18:41;5.83;;;3.87;;
7707;SDS011;3896;48.758;8.888;2023-04-30T00:21:07;4.90;;;4.00;;
7707;SDS011;3896;48.758;8.888;2023-04-30T00:23:33;4.00;;;3.60;;
7707;SDS011;3896;48.758;8.888;2023-04-30T00:25:58;3.70;;;3.10;;
7707;SDS011;3896;48.758;8.888;2023-04-30T00:28:24;4.73;;;3.27;;
7707;SDS011;3896;48.758;8.888;2023-04-30T00:30:49;3.50;;;3.20;;
7707;SDS011;3896;48.758;8.888;2023-04-30T00:33:15;3.27;;;2.97;;
7707;SDS011;3896;48.758;8.888;2023-04-30T00:35:40;5.47;;;3.23;;
7707;SDS011;3896;48.758;8.888;2023-04-30T00:38:06;3.40;;;3.10;;
7707;SDS011;3896;48.758;8.888;2023-04-30T00:40:35;4.03;;;2.93;;
7707;SDS011;3896;48.758;8.888;2023-04-30T00:43:02;3.47;;;3.10;;
7707;SDS011;3896;48.758;8.888;2023-04-30T00:45:27;3.03;;;2.80;;
7707;SDS011;3896;48.758;8.888;2023-04-30T00:47:53;3.73;;;3.20;;
7707;SDS011;3896;48.758;8.888;2023-04-30T00:50:19;5.43;;;2.77;;
7707;SDS011;3896;48.758;8.888;2023-04-30T00:52:44;3.40;;;3.10;;
7707;SDS011;3896;48.758;8.888;2023-04-30T00:55:10;3.57;;;3.27;;
7707;SDS011;3896;48.758;8.888;2023-04-30T00:57:37;3.70;;;3.30;;
7707;SDS011;3896;48.758;8.888;2023-04-30T01:00:03;3.60;;;3.20;;
7707;SDS011;3896;48.758;8.888;2023-04-30T01:02:30;4.73;;;3.27;;
7707;SDS011;3896;48.758;8.888;2023-04-30T01:04:56;6.73;;;5.03;;
7707;SDS011;3896;48.758;8.888;2023-04-30T01:07:22;3.97;;;3.57;;
7707;SDS011;3896;48.758;8.888;2023-04-30T01:09:49;5.17;;;3.80;;
7707;SDS011;3896;48.758;8.888;2023-04-30T01:12:24;4.00;;;3.60;;
7707;SDS011;3896;48.758;8.888;2023-04-30T01:15:03;3.60;;;3.30;;
7707;SDS011;3896;48.758;8.888;2023-04-30T01:20:29;5.67;;;4.17;;
7707;SDS011;3896;48.758;8.888;2023-04-30T01:23:10;4.40;;;4.00;;
7707;SDS011;3896;48.758;8.888;2023-04-30T01:28:25;5.60;;;4.20;;
7707;SDS011;3896;48.758;8.888;2023-04-30T01:30:52;7.33;;;4.40;;
7707;SDS011;3896;48.758;8.888;2023-04-30T01:33:18;6.50;;;4.73;;
7707;SDS011;3896;48.758;8.888;2023-04-30T01:35:57;7.47;;;4.80;;
7707;SDS011;3896;48.758;8.888;2023-04-30T01:44:23;7.60;;;5.63;;
7707;SDS011;3896;48.758;8.888;2023-04-30T01:47:15;7.60;;;5.30;;
7707;SDS011;3896;48.758;8.888;2023-04-30T01:50:19;6.57;;;5.70;;
7707;SDS011;3896;48.758;8.888;2023-04-30T01:52:57;7.33;;;6.10;;
7707;SDS011;3896;48.758;8.888;2023-04-30T01:58:12;6.47;;;5.60;;
7707;SDS011;3896;48.758;8.888;2023-04-30T02:00:39;6.23;;;4.97;;
7707;SDS011;3896;48.758;8.888;2023-04-30T02:03:05;9.70;;;5.87;;
7707;SDS011;3896;48.758;8.888;2023-04-30T02:05:31;7.27;;;5.30;;
7707;SDS011;3896;48.758;8.888;2023-04-30T02:07:57;8.13;;;6.00;;
7707;SDS011;3896;48.758;8.888;2023-04-30T02:10:23;8.97;;;6.10;;
7707;SDS011;3896;48.758;8.888;2023-04-30T02:12:50;7.27;;;6.23;;
7707;SDS011;3896;48.758;8.888;2023-04-30T02:15:16;11.17;;;6.47;;
7707;SDS011;3896;48.758;8.888;2023-04-30T02:17:41;8.33;;;5.83;;
7707;SDS011;3896;48.758;8.888;2023-04-30T02:20:07;8.73;;;6.77;;
7707;SDS011;3896;48.758;8.888;2023-04-30T02:22:33;9.37;;;6.43;;
7707;SDS011;3896;48.758;8.888;2023-04-30T02:24:59;7.17;;;6.13;;
7707;SDS011;3896;48.758;8.888;2023-04-30T02:27:25;9.20;;;6.63;;
7707;SDS011;3896;48.758;8.888;2023-04-30T02:29:51;10.20;;;6.27;;
7707;SDS011;3896;48.758;8.888;2023-04-30T02:32:17;8.03;;;6.33;;
7707;SDS011;3896;48.758;8.888;2023-04-30T02:34:43;11.47;;;7.50;;
7707;SDS011;3896;48.758;8.888;2023-04-30T02:37:09;9.17;;;6.63;;
7707;SDS011;3896;48.758;8.888;2023-04-30T02:39:35;9.33;;;6.50;;
7707;SDS011;3896;48.758;8.888;2023-04-30T02:42:00;9.37;;;6.37;;
7707;SDS011;3896;48.758;8.888;2023-04-30T02:44:27;7.37;;;6.47;;
7707;SDS011;3896;48.758;8.888;2023-04-30T02:46:52;9.03;;;7.20;;
7707;SDS011;3896;48.758;8.888;2023-04-30T02:49:18;7.57;;;6.47;;
7707;SDS011;3896;48.758;8.888;2023-04-30T02:51:43;7.77;;;6.97;;
7707;SDS011;3896;48.758;8.888;2023-04-30T02:54:09;10.57;;;7.27;;
7707;SDS011;3896;48.758;8.888;2023-04-30T02:56:35;9.63;;;7.67;;
7707;SDS011;3896;48.758;8.888;2023-04-30T02:59:00;10.00;;;7.77;;
7707;SDS011;3896;48.758;8.888;2023-04-30T03:01:26;10.70;;;6.87;;
7707;SDS011;3896;48.758;8.888;2023-04-30T03:03:51;10.03;;;7.70;;
7707;SDS011;3896;48.758;8.888;2023-04-30T03:06:17;9.80;;;7.30;;
7707;SDS011;3896;48.758;8.888;2023-04-30T03:08:43;9.47;;;7.67;;
7707;SDS011;3896;48.758;8.888;2023-04-30T03:11:08;12.00;;;8.53;;
7707;SDS011;3896;48.758;8.888;2023-04-30T03:13:34;10.07;;;7.23;;
7707;SDS011;3896;48.758;8.888;2023-04-30T03:16:00;9.57;;;7.13;;
7707;SDS011;3896;48.758;8.888;2023-04-30T03:18:28;7.83;;;6.20;;
7707;SDS011;3896;48.758;8.888;2023-04-30T03:20:54;10.23;;;7.50;;
7707;SDS011;3896;48.758;8.888;2023-04-30T03:23:20;8.43;;;7.37;;
7707;SDS011;3896;48.758;8.888;2023-04-30T03:25:46;9.60;;;6.83;;
7707;SDS011;3896;48.758;8.888;2023-04-30T03:28:12;9.50;;;8.17;;
7707;SDS011;3896;48.758;8.888;2023-04-30T03:30:38;8.73;;;7.30;;
7707;SDS011;3896;48.758;8.888;2023-04-30T03:33:03;7.83;;;6.63;;
7707;SDS011;3896;48.758;8.888;2023-04-30T03:35:32;8.03;;;6.63;;
7707;SDS011;3896;48.758;8.888;2023-04-30T03:37:58;8.83;;;7.30;;
7707;SDS011;3896;48.758;8.888;2023-04-30T03:40:24;9.73;;;6.93;;
7707;SDS011;3896;48.758;8.888;2023-04-30T03:42:49;8.43;;;6.57;;
7707;SDS011;3896;48.758;8.888;2023-04-30T03:45:15;8.73;;;7.47;;
7707;SDS011;3896;48.758;8.888;2023-04-30T03:47:41;11.87;;;7.17;;
7707;SDS011;3896;48.758;8.888;2023-04-30T03:50:07;10.60;;;7.40;;
7707;SDS011;3896;48.758;8.888;2023-04-30T03:52:33;7.90;;;6.43;;
7707;SDS011;3896;48.758;8.888;2023-04-30T03:55:00;10.57;;;7.07;;
7707;SDS011;3896;48.758;8.888;2023-04-30T03:57:26;10.10;;;7.33;;
7707;SDS011;3896;48.758;8.888;2023-04-30T03:59:52;10.23;;;7.43;;
7707;SDS011;3896;48.758;8.888;2023-04-30T04:02:18;9.23;;;7.37;;
7707;SDS011;3896;48.758;8.888;2023-04-30T04:04:45;10.70;;;7.77;;
7707;SDS011;3896;48.758;8.888;2023-04-30T04:07:11;10.67;;;7.37;;
7707;SDS011;3896;48.758;8.888;2023-04-30T04:09:36;9.27;;;7.40;;
7707;SDS011;3896;48.758;8.888;2023-04-30T04:12:02;9.80;;;8.03;;
7707;SDS011;3896;48.758;8.888;2023-04-30T04:14:28;12.83;;;8.10;;
7707;SDS011;3896;48.758;8.888;2023-04-30T04:16:53;10.63;;;7.50;;
7707;SDS011;3896;48.758;8.888;2023-04-30T04:19:21;11.30;;;7.50;;
7707;SDS011;3896;48.758;8.888;2023-04-30T04:21:47;9.30;;;7.23;;
7707;SDS011;3896;48.758;8.888;2023-04-30T04:24:13;10.10;;;7.50;;
7707;SDS011;3896;48.758;8.888;2023-04-30T04:26:38;10.27;;;7.30;;
7707;SDS011;3896;48.758;8.888;2023-04-30T04:29:04;8.93;;;7.17;;
7707;SDS011;3896;48.758;8.888;2023-04-30T04:31:30;9.43;;;7.50;;
7707;SDS011;3896;48.758;8.888;2023-04-30T04:33:57;10.37;;;7.00;;
7707;SDS011;3896;48.758;8.888;2023-04-30T04:36:24;9.47;;;7.80;;
7707;SDS011;3896;48.758;8.888;2023-04-30T04:38:52;8.37;;;7.17;;
7707;SDS011;3896;48.758;8.888;2023-04-30T04:41:19;12.20;;;8.50;;
7707;SDS011;3896;48.758;8.888;2023-04-30T04:43:45;10.43;;;7.97;;
7707;SDS011;3896;48.758;8.888;2023-04-30T04:46:11;10.13;;;7.50;;
7707;SDS011;3896;48.758;8.888;2023-04-30T04:48:36;10.93;;;7.13;;
7707;SDS011;3896;48.758;8.888;2023-04-30T04:51:02;9.00;;;7.17;;
7707;SDS011;3896;48.758;8.888;2023-04-30T04:53:28;9.80;;;7.23;;
7707;SDS011;3896;48.758;8.888;2023-04-30T04:55:53;10.27;;;7.27;;
7707;SDS011;3896;48.758;8.888;2023-04-30T04:58:19;8.87;;;7.43;;
7707;SDS011;3896;48.758;8.888;2023-04-30T05:00:44;10.20;;;6.70;;
7707;SDS011;3896;48.758;8.888;2023-04-30T05:03:10;10.57;;;7.63;;
7707;SDS011;3896;48.758;8.888;2023-04-30T05:05:36;11.10;;;7.60;;
7707;SDS011;3896;48.758;8.888;2023-04-30T05:08:01;9.23;;;7.97;;
7707;SDS011;3896;48.758;8.888;2023-04-30T05:10:27;9.70;;;7.83;;
7707;SDS011;3896;48.758;8.888;2023-04-30T05:12:52;11.43;;;8.40;;
7707;SDS011;3896;48.758;8.888;2023-04-30T05:15:18;10.80;;;8.53;;
7707;SDS011;3896;48.758;8.888;2023-04-30T05:17:43;10.73;;;8.53;;
7707;SDS011;3896;48.758;8.888;2023-04-30T05:20:10;11.83;;;10.03;;
7707;SDS011;3896;48.758;8.888;2023-04-30T05:22:36;13.03;;;10.07;;
7707;SDS011;3896;48.758;8.888;2023-04-30T05:25:02;12.00;;;9.17;;
7707;SDS011;3896;48.758;8.888;2023-04-30T05:27:28;13.70;;;9.73;;
7707;SDS011;3896;48.758;8.888;2023-04-30T05:29:53;12.43;;;9.83;;
7707;SDS011;3896;48.758;8.888;2023-04-30T05:32:19;15.77;;;9.80;;
7707;SDS011;3896;48.758;8.888;2023-04-30T05:34:46;12.97;;;9.93;;
7707;SDS011;3896;48.758;8.888;2023-04-30T05:37:11;12.97;;;10.17;;
7707;SDS011;3896;48.758;8.888;2023-04-30T05:39:38;12.63;;;9.53;;
7707;SDS011;3896;48.758;8.888;2023-04-30T05:42:03;12.87;;;10.23;;
7707;SDS011;3896;48.758;8.888;2023-04-30T05:44:29;13.33;;;10.13;;
7707;SDS011;3896;48.758;8.888;2023-04-30T05:46:55;12.60;;;9.57;;
7707;SDS011;3896;48.758;8.888;2023-04-30T05:49:21;12.03;;;9.63;;
7707;SDS011;3896;48.758;8.888;2023-04-30T05:51:46;12.43;;;9.73;;
7707;SDS011;3896;48.758;8.888;2023-04-30T05:54:12;12.83;;;9.87;;
7707;SDS011;3896;48.758;8.888;2023-04-30T05:56:37;12.23;;;10.10;;
7707;SDS011;3896;48.758;8.888;2023-04-30T05:59:03;14.67;;;10.63;;
7707;SDS011;3896;48.758;8.888;2023-04-30T06:01:28;14.57;;;11.33;;
7707;SDS011;3896;48.758;8.888;2023-04-30T06:03:54;13.27;;;10.17;;
7707;SDS011;3896;48.758;8.888;2023-04-30T06:06:19;14.23;;;10.47;;
7707;SDS011;3896;48.758;8.888;2023-04-30T06:08:46;14.60;;;10.07;;
7707;SDS011;3896;48.758;8.888;2023-04-30T06:11:11;13.13;;;10.20;;
7707;SDS011;3896;48.758;8.888;2023-04-30T06:13:37;13.17;;;10.37;;
7707;SDS011;3896;48.758;8.888;2023-04-30T06:16:04;14.33;;;10.80;;
7707;SDS011;3896;48.758;8.888;2023-04-30T06:18:30;14.97;;;10.80;;
7707;SDS011;3896;48.758;8.888;2023-04-30T06:20:56;13.27;;;10.83;;
7707;SDS011;3896;48.758;8.888;2023-04-30T06:23:21;13.40;;;10.30;;
7707;SDS011;3896;48.758;8.888;2023-04-30T06:25:47;14.13;;;9.80;;
7707;SDS011;3896;48.758;8.888;2023-04-30T06:28:12;15.07;;;11.33;;
7707;SDS011;3896;48.758;8.888;2023-04-30T06:30:38;13.77;;;10.40;;
7707;SDS011;3896;48.758;8.888;2023-04-30T06:33:05;12.60;;;10.13;;
7707;SDS011;3896;48.758;8.888;2023-04-30T06:35:30;12.77;;;10.20;;
7707;SDS011;3896;48.758;8.888;2023-04-30T06:37:56;11.90;;;9.67;;
7707;SDS011;3896;48.758;8.888;2023-04-30T06:40:21;12.30;;;9.87;;
7707;SDS011;3896;48.758;8.888;2023-04-30T06:42:47;13.00;;;10.33;;
7707;SDS011;3896;48.758;8.888;2023-04-30T06:45:13;15.27;;;10.00;;
7707;SDS011;3896;48.758;8.888;2023-04-30T06:47:39;12.40;;;9.83;;
7707;SDS011;3896;48.758;8.888;2023-04-30T06:50:06;11.47;;;9.47;;
7707;SDS011;3896;48.758;8.888;2023-04-30T06:52:32;14.27;;;10.97;;
7707;SDS011;3896;48.758;8.888;2023-04-30T06:54:58;11.50;;;9.20;;
7707;SDS011;3896;48.758;8.888;2023-04-30T06:57:25;13.67;;;9.67;;
7707;SDS011;3896;48.758;8.888;2023-04-30T06:59:51;12.73;;;9.67;;
7707;SDS011;3896;48.758;8.888;2023-04-30T07:02:17;11.90;;;9.77;;
7707;SDS011;3896;48.758;8.888;2023-04-30T07:04:42;12.03;;;9.80;;
7707;SDS011;3896;48.758;8.888;2023-04-30T07:07:08;13.03;;;9.93;;
7707;SDS011;3896;48.758;8.888;2023-04-30T07:09:34;11.70;;;9.30;;
7707;SDS011;3896;48.758;8.888;2023-04-30T07:12:00;13.57;;;9.93;;
7707;SDS011;3896;48.758;8.888;2023-04-30T07:14:27;12.47;;;9.83;;
7707;SDS011;3896;48.758;8.888;2023-04-30T07:16:53;17.00;;;8.63;;
7707;SDS011;3896;48.758;8.888;2023-04-30T07:19:18;10.27;;;7.87;;
7707;SDS011;3896;48.758;8.888;2023-04-30T07:21:44;12.50;;;8.33;;
7707;SDS011;3896;48.758;8.888;2023-04-30T07:24:10;10.50;;;8.53;;
7707;SDS011;3896;48.758;8.888;2023-04-30T07:26:36;11.10;;;9.30;;
7707;SDS011;3896;48.758;8.888;2023-04-30T07:29:01;10.67;;;8.17;;
7707;SDS011;3896;48.758;8.888;2023-04-30T07:31:27;10.97;;;8.77;;
7707;SDS011;3896;48.758;8.888;2023-04-30T07:33:53;9.90;;;8.37;;
7707;SDS011;3896;48.758;8.888;2023-04-30T07:36:19;12.40;;;8.83;;
7707;SDS011;3896;48.758;8.888;2023-04-30T07:38:45;11.40;;;8.70;;
7707;SDS011;3896;48.758;8.888;2023-04-30T07:41:11;10.70;;;8.27;;
7707;SDS011;3896;48.758;8.888;2023-04-30T07:43:37;10.17;;;8.00;;
7707;SDS011;3896;48.758;8.888;2023-04-30T07:46:03;10.37;;;6.93;;
7707;SDS011;3896;48.758;8.888;2023-04-30T07:48:29;7.93;;;6.80;;
7707;SDS011;3896;48.758;8.888;2023-04-30T07:50:54;8.53;;;7.27;;
7707;SDS011;3896;48.758;8.888;2023-04-30T07:53:20;7.93;;;6.83;;
7707;SDS011;3896;48.758;8.888;2023-04-30T07:55:46;8.90;;;7.23;;
7707;SDS011;3896;48.758;8.888;2023-04-30T07:58:13;8.57;;;7.23;;
7707;SDS011;3896;48.758;8.888;2023-04-30T08:00:39;7.20;;;5.93;;
7707;SDS011;3896;48.758;8.888;2023-04-30T08:03:04;9.37;;;6.50;;
7707;SDS011;3896;48.758;8.888;2023-04-30T08:05:30;6.80;;;6.10;;
7707;SDS011;3896;48.758;8.888;2023-04-30T08:07:56;7.20;;;6.50;;
7707;SDS011;3896;48.758;8.888;2023-04-30T08:10:21;9.90;;;6.90;;
7707;SDS011;3896;48.758;8.888;2023-04-30T08:12:48;7.23;;;6.47;;
7707;SDS011;3896;48.758;8.888;2023-04-30T08:15:14;7.43;;;6.63;;
7707;SDS011;3896;48.758;8.888;2023-04-30T08:17:39;7.60;;;6.20;;
7707;SDS011;3896;48.758;8.888;2023-04-30T08:20:05;6.43;;;5.83;;
7707;SDS011;3896;48.758;8.888;2023-04-30T08:22:31;8.00;;;6.17;;
7707;SDS011;3896;48.758;8.888;2023-04-30T08:24:57;6.40;;;5.80;;
7707;SDS011;3896;48.758;8.888;2023-04-30T08:27:25;5.50;;;5.00;;
7707;SDS011;3896;48.758;8.888;2023-04-30T08:29:51;6.13;;;4.77;;
7707;SDS011;3896;48.758;8.888;2023-04-30T08:32:17;5.47;;;4.53;;
7707;SDS011;3896;48.758;8.888;2023-04-30T08:34:43;4.57;;;4.17;;
7707;SDS011;3896;48.758;8.888;2023-04-30T08:37:09;5.90;;;4.63;;
7707;SDS011;3896;48.758;8.888;2023-04-30T08:39:34;5.90;;;5.30;;
7707;SDS011;3896;48.758;8.888;2023-04-30T08:42:03;5.20;;;4.70;;
7707;SDS011;3896;48.758;8.888;2023-04-30T08:44:33;6.47;;;4.77;;
7707;SDS011;3896;48.758;8.888;2023-04-30T08:47:03;4.27;;;3.87;;
7707;SDS011;3896;48.758;8.888;2023-04-30T08:49:31;3.70;;;3.40;;
7707;SDS011;3896;48.758;8.888;2023-04-30T08:51:57;4.20;;;3.80;;
7707;SDS011;3896;48.758;8.888;2023-04-30T08:54:24;3.30;;;3.00;;
7707;SDS011;3896;48.758;8.888;2023-04-30T08:56:52;4.10;;;3.70;;
7707;SDS011;3896;48.758;8.888;2023-04-30T08:59:17;4.80;;;4.37;;
7707;SDS011;3896;48.758;8.888;2023-04-30T09:01:43;7.00;;;5.37;;
7707;SDS011;3896;48.758;8.888;2023-04-30T09:04:09;4.83;;;4.27;;
7707;SDS011;3896;48.758;8.888;2023-04-30T09:06:34;3.47;;;3.17;;
7707;SDS011;3896;48.758;8.888;2023-04-30T09:09:10;3.57;;;3.20;;
7707;SDS011;3896;48.758;8.888;2023-04-30T09:11:40;3.20;;;2.90;;
7707;SDS011;3896;48.758;8.888;2023-04-30T09:14:06;5.90;;;4.43;;
7707;SDS011;3896;48.758;8.888;2023-04-30T09:16:48;3.53;;;3.23;;
7707;SDS011;3896;48.758;8.888;2023-04-30T09:19:24;4.00;;;3.03;;
7707;SDS011;3896;48.758;8.888;2023-04-30T09:21:54;3.40;;;3.10;;
7707;SDS011;3896;48.758;8.888;2023-04-30T09:24:20;2.80;;;2.60;;
7707;SDS011;3896;48.758;8.888;2023-04-30T09:26:46;3.10;;;2.90;;
7707;SDS011;3896;48.758;8.888;2023-04-30T09:29:12;2.80;;;2.60;;
7707;SDS011;3896;48.758;8.888;2023-04-30T09:31:41;3.17;;;2.80;;
7707;SDS011;3896;48.758;8.888;2023-04-30T09:34:08;2.90;;;2.70;;
7707;SDS011;3896;48.758;8.888;2023-04-30T09:36:34;2.67;;;2.47;;
7707;SDS011;3896;48.758;8.888;2023-04-30T09:39:10;2.60;;;2.30;;
7707;SDS011;3896;48.758;8.888;2023-04-30T09:41:37;3.87;;;2.70;;
7707;SDS011;3896;48.758;8.888;2023-04-30T09:44:03;3.20;;;2.90;;
7707;SDS011;3896;48.758;8.888;2023-04-30T09:46:30;3.53;;;3.23;;
7707;SDS011;3896;48.758;8.888;2023-04-30T09:49:04;5.10;;;3.57;;
7707;SDS011;3896;48.758;8.888;2023-04-30T09:51:30;5.20;;;3.07;;
7707;SDS011;3896;48.758;8.888;2023-04-30T09:53:56;4.07;;;3.73;;
7707;SDS011;3896;48.758;8.888;2023-04-30T09:56:23;3.50;;;3.20;;
7707;SDS011;3896;48.758;8.888;2023-04-30T09:58:50;3.80;;;2.87;;
7707;SDS011;3896;48.758;8.888;2023-04-30T10:01:18;3.00;;;2.80;;
7707;SDS011;3896;48.758;8.888;2023-04-30T10:03:44;2.90;;;2.70;;
7707;SDS011;3896;48.758;8.888;2023-04-30T10:06:11;3.37;;;2.87;;
7707;SDS011;3896;48.758;8.888;2023-04-30T10:08:42;2.90;;;2.70;;
7707;SDS011;3896;48.758;8.888;2023-04-30T10:11:09;3.43;;;3.10;;
7707;SDS011;3896;48.758;8.888;2023-04-30T10:19:16;4.37;;;3.10;;
7707;SDS011;3896;48.758;8.888;2023-04-30T10:21:47;3.97;;;3.57;;
7707;SDS011;3896;48.758;8.888;2023-04-30T10:24:14;4.33;;;3.73;;
7707;SDS011;3896;48.758;8.888;2023-04-30T10:26:43;3.23;;;2.93;;
7707;SDS011;3896;48.758;8.888;2023-04-30T10:29:12;3.90;;;3.20;;
7707;SDS011;3896;48.758;8.888;2023-04-30T10:31:44;3.20;;;2.90;;
7707;SDS011;3896;48.758;8.888;2023-04-30T10:34:34;3.30;;;3.00;;
7707;SDS011;3896;48.758;8.888;2023-04-30T10:39:53;3.20;;;2.97;;
7707;SDS011;3896;48.758;8.888;2023-04-30T10:42:20;6.43;;;3.23;;
7707;SDS011;3896;48.758;8.888;2023-04-30T10:44:45;3.97;;;3.57;;
7707;SDS011;3896;48.758;8.888;2023-04-30T10:47:12;3.30;;;3.10;;
7707;SDS011;3896;48.758;8.888;2023-04-30T10:49:38;3.07;;;2.70;;
7707;SDS011;3896;48.758;8.888;2023-04-30T10:52:07;3.67;;;2.90;;
7707;SDS011;3896;48.758;8.888;2023-04-30T10:54:35;3.23;;;2.93;;
7707;SDS011;3896;48.758;8.888;2023-04-30T10:57:08;2.80;;;2.60;;
7707;SDS011;3896;48.758;8.888;2023-04-30T10:59:35;3.30;;;2.87;;
7707;SDS011;3896;48.758;8.888;2023-04-30T11:02:01;3.63;;;2.90;;
7707;SDS011;3896;48.758;8.888;2023-04-30T11:04:27;3.07;;;2.87;;
7707;SDS011;3896;48.758;8.888;2023-04-30T11:07:08;4.50;;;3.23;;
7707;SDS011;3896;48.758;8.888;2023-04-30T11:09:39;2.77;;;2.57;;
7707;SDS011;3896;48.758;8.888;2023-04-30T11:12:18;4.10;;;3.07;;
7707;SDS011;3896;48.758;8.888;2023-04-30T11:14:52;3.23;;;2.93;;
7707;SDS011;3896;48.758;8.888;2023-04-30T11:17:26;3.23;;;3.03;;
7707;SDS011;3896;48.758;8.888;2023-04-30T11:19:52;2.90;;;2.70;;
7707;SDS011;3896;48.758;8.888;2023-04-30T11:22:20;3.17;;;2.93;;
7707;SDS011;3896;48.758;8.888;2023-04-30T11:24:51;3.40;;;3.10;;
7707;SDS011;3896;48.758;8.888;2023-04-30T11:27:26;2.87;;;2.57;;
7707;SDS011;3896;48.758;8.888;2023-04-30T11:29:57;3.27;;;2.97;;
7707;SDS011;3896;48.758;8.888;2023-04-30T11:32:24;2.87;;;2.67;;
7707;SDS011;3896;48.758;8.888;2023-04-30T11:34:51;2.67;;;2.47;;
7707;SDS011;3896;48.758;8.888;2023-04-30T11:37:18;4.10;;;3.03;;
7707;SDS011;3896;48.758;8.888;2023-04-30T11:39:46;3.80;;;3.50;;
7707;SDS011;3896;48.758;8.888;2023-04-30T11:42:21;2.77;;;2.60;;
7707;SDS011;3896;48.758;8.888;2023-04-30T11:44:47;3.37;;;2.63;;
7707;SDS011;3896;48.758;8.888;2023-04-30T11:47:12;2.77;;;2.50;;
7707;SDS011;3896;48.758;8.888;2023-04-30T11:49:39;3.10;;;2.90;;
7707;SDS011;3896;48.758;8.888;2023-04-30T11:52:05;2.90;;;2.70;;
7707;SDS011;3896;48.758;8.888;2023-04-30T11:54:32;3.97;;;3.07;;
7707;SDS011;3896;48.758;8.888;2023-04-30T11:56:59;2.87;;;2.67;;
7707;SDS011;3896;48.758;8.888;2023-04-30T11:59:28;3.87;;;3.20;;
7707;SDS011;3896;48.758;8.888;2023-04-30T12:01:55;2.70;;;2.50;;
7707;SDS011;3896;48.758;8.888;2023-04-30T12:04:20;2.70;;;2.50;;
7707;SDS011;3896;48.758;8.888;2023-04-30T12:06:46;2.47;;;2.33;;
7707;SDS011;3896;48.758;8.888;2023-04-30T12:09:12;2.80;;;2.60;;
7707;SDS011;3896;48.758;8.888;2023-04-30T12:11:38;2.70;;;2.50;;
7707;SDS011;3896;48.758;8.888;2023-04-30T12:14:04;2.97;;;2.67;;
7707;SDS011;3896;48.758;8.888;2023-04-30T12:16:44;3.70;;;3.43;;
7707;SDS011;3896;48.758;8.888;2023-04-30T12:19:19;4.60;;;2.90;;
7707;SDS011;3896;48.758;8.888;2023-04-30T12:21:46;3.03;;;2.83;;
7707;SDS011;3896;48.758;8.888;2023-04-30T12:24:14;3.70;;;2.90;;
7707;SDS011;3896;48.758;8.888;2023-04-30T12:26:40;3.27;;;2.97;;
7707;SDS011;3896;48.758;8.888;2023-04-30T12:29:17;2.90;;;2.70;;
7707;SDS011;3896;48.758;8.888;2023-04-30T12:31:47;2.93;;;2.67;;
7707;SDS011;3896;48.758;8.888;2023-04-30T12:34:15;3.37;;;3.03;;
7707;SDS011;3896;48.758;8.888;2023-04-30T12:36:42;3.90;;;3.40;;
7707;SDS011;3896;48.758;8.888;2023-04-30T12:39:08;3.60;;;3.30;;
7707;SDS011;3896;48.758;8.888;2023-04-30T12:41:43;3.17;;;2.97;;
7707;SDS011;3896;48.758;8.888;2023-04-30T12:44:17;4.03;;;3.10;;
7707;SDS011;3896;48.758;8.888;2023-04-30T12:46:46;3.00;;;2.63;;
7707;SDS011;3896;48.758;8.888;2023-04-30T12:49:20;2.63;;;2.43;;
7707;SDS011;3896;48.758;8.888;2023-04-30T12:51:50;3.03;;;2.73;;
7707;SDS011;3896;48.758;8.888;2023-04-30T12:54:29;2.63;;;2.50;;
7707;SDS011;3896;48.758;8.888;2023-04-30T12:57:00;2.83;;;2.47;;
7707;SDS011;3896;48.758;8.888;2023-04-30T12:59:35;2.30;;;2.20;;
7707;SDS011;3896;48.758;8.888;2023-04-30T13:02:23;3.83;;;2.70;;
7707;SDS011;3896;48.758;8.888;2023-04-30T13:04:51;2.50;;;2.30;;
7707;SDS011;3896;48.758;8.888;2023-04-30T13:07:17;2.90;;;2.67;;
7707;SDS011;3896;48.758;8.888;2023-04-30T13:09:43;2.90;;;2.70;;
7707;SDS011;3896;48.758;8.888;2023-04-30T13:12:08;2.93;;;2.73;;
7707;SDS011;3896;48.758;8.888;2023-04-30T13:14:34;2.80;;;2.60;;
7707;SDS011;3896;48.758;8.888;2023-04-30T13:17:00;3.90;;;3.60;;
7707;SDS011;3896;48.758;8.888;2023-04-30T13:19:31;2.97;;;2.77;;
7707;SDS011;3896;48.758;8.888;2023-04-30T13:21:57;3.00;;;2.70;;
7707;SDS011;3896;48.758;8.888;2023-04-30T13:24:25;3.27;;;3.00;;
7707;SDS011;3896;48.758;8.888;2023-04-30T13:26:51;3.93;;;3.00;;
7707;SDS011;3896;48.758;8.888;2023-04-30T13:29:17;4.10;;;2.57;;
7707;SDS011;3896;48.758;8.888;2023-04-30T13:31:45;4.27;;;3.33;;
7707;SDS011;3896;48.758;8.888;2023-04-30T13:34:13;3.00;;;2.67;;
7707;SDS011;3896;48.758;8.888;2023-04-30T13:36:39;2.97;;;2.77;;
7707;SDS011;3896;48.758;8.888;2023-04-30T13:39:05;2.83;;;2.67;;
7707;SDS011;3896;48.758;8.888;2023-04-30T13:41:30;2.50;;;2.30;;
7707;SDS011;3896;48.758;8.888;2023-04-30T13:43:56;4.97;;;3.17;;
7707;SDS011;3896;48.758;8.888;2023-04-30T13:46:23;3.43;;;2.50;;
7707;SDS011;3896;48.758;8.888;2023-04-30T13:48:49;2.20;;;2.00;;
7707;SDS011;3896;48.758;8.888;2023-04-30T13:51:17;2.63;;;2.43;;
7707;SDS011;3896;48.758;8.888;2023-04-30T13:53:42;4.47;;;2.20;;
7707;SDS011;3896;48.758;8.888;2023-04-30T13:56:08;2.73;;;2.53;;
7707;SDS011;3896;48.758;8.888;2023-04-30T13:58:34;2.87;;;2.67;;
7707;SDS011;3896;48.758;8.888;2023-04-30T14:00:59;3.00;;;2.30;;
7707;SDS011;3896;48.758;8.888;2023-04-30T14:03:25;2.37;;;2.17;;
7707;SDS011;3896;48.758;8.888;2023-04-30T14:05:51;2.70;;;2.50;;
7707;SDS011;3896;48.758;8.888;2023-04-30T14:08:17;3.73;;;2.33;;
7707;SDS011;3896;48.758;8.888;2023-04-30T14:10:43;3.00;;;2.53;;
7707;SDS011;3896;48.758;8.888;2023-04-30T14:13:09;3.57;;;2.50;;
7707;SDS011;3896;48.758;8.888;2023-04-30T14:15:34;2.83;;;2.20;;
7707;SDS011;3896;48.758;8.888;2023-04-30T14:20:28;6.00;;;2.93;;
7707;SDS011;3896;48.758;8.888;2023-04-30T14:22:54;2.40;;;2.20;;
7707;SDS011;3896;48.758;8.888;2023-04-30T14:25:20;2.60;;;2.40;;
7707;SDS011;3896;48.758;8.888;2023-04-30T14:27:46;3.17;;;2.10;;
7707;SDS011;3896;48.758;8.888;2023-04-30T14:30:12;3.23;;;2.83;;
7707;SDS011;3896;48.758;8.888;2023-04-30T14:32:37;2.97;;;2.30;;
7707;SDS011;3896;48.758;8.888;2023-04-30T14:35:03;2.37;;;2.10;;
7707;SDS011;3896;48.758;8.888;2023-04-30T14:37:29;2.73;;;1.90;;
7707;SDS011;3896;48.758;8.888;2023-04-30T14:39:55;2.40;;;2.20;;
7707;SDS011;3896;48.758;8.888;2023-04-30T14:42:20;2.63;;;2.40;;
7707;SDS011;3896;48.758;8.888;2023-04-30T14:44:46;4.80;;;2.40;;
7707;SDS011;3896;48.758;8.888;2023-04-30T14:47:11;2.97;;;2.20;;
7707;SDS011;3896;48.758;8.888;2023-04-30T14:49:37;5.33;;;2.13;;
7707;SDS011;3896;48.758;8.888;2023-04-30T14:52:03;2.57;;;2.37;;
7707;SDS011;3896;48.758;8.888;2023-04-30T14:54:28;3.00;;;2.17;;
7707;SDS011;3896;48.758;8.888;2023-04-30T14:56:54;2.20;;;2.10;;
7707;SDS011;3896;48.758;8.888;2023-04-30T14:59:19;3.97;;;2.33;;
7707;SDS011;3896;48.758;8.888;2023-04-30T15:01:45;2.87;;;2.57;;
7707;SDS011;3896;48.758;8.888;2023-04-30T15:04:10;1.93;;;1.83;;
7707;SDS011;3896;48.758;8.888;2023-04-30T15:06:36;2.87;;;2.67;;
7707;SDS011;3896;48.758;8.888;2023-04-30T15:09:02;2.30;;;2.10;;
7707;SDS011;3896;48.758;8.888;2023-04-30T15:11:27;3.00;;;2.70;;
7707;SDS011;3896;48.758;8.888;2023-04-30T15:13:53;3.40;;;2.20;;
7707;SDS011;3896;48.758;8.888;2023-04-30T15:16:19;2.47;;;2.23;;
7707;SDS011;3896;48.758;8.888;2023-04-30T15:18:45;1.97;;;1.80;;
7707;SDS011;3896;48.758;8.888;2023-04-30T15:21:11;1.97;;;1.87;;
7707;SDS011;3896;48.758;8.888;2023-04-30T15:23:36;2.50;;;2.30;;
7707;SDS011;3896;48.758;8.888;2023-04-30T15:26:02;2.67;;;2.47;;
7707;SDS011;3896;48.758;8.888;2023-04-30T15:28:28;2.20;;;2.10;;
7707;SDS011;3896;48.758;8.888;2023-04-30T15:30:55;4.17;;;2.40;;
7707;SDS011;3896;48.758;8.888;2023-04-30T15:33:20;2.23;;;2.03;;
7707;SDS011;3896;48.758;8.888;2023-04-30T15:35:50;2.80;;;2.60;;